Time;durP1;ratioP1;P1;durP2;ratioP2;P2;SDS_P1;SDS_P2;PMS_P1;PMS_P2;Temp;Humidity;BMP_temperature;BMP_pressure;BME280_temperature;BME280_humidity;BME280_pressure;Samples;Min_cycle;Max_cycle;Signal;HPM_P1;HPM_P2
2022/04/03 12:31:24;;;;;;;1.00;0.60;;;15.50;66.70;;;;;;2289803;62;30966;-79
2022/04/03 12:34:15;;;;;;;2.55;0.60;;;15.50;66.20;;;;;;2276823;62;30109;-78
2022/04/03 12:36:49;;;;;;;0.65;0.32;;;15.40;67.50;;;;;;2283691;62;30057;-79
2022/04/03 12:39:30;;;;;;;3.55;1.15;;;15.40;68.00;;;;;;2291405;62;30989;-79
2022/04/03 12:41:56;;;;;;;0.43;0.43;;;15.50;68.20;;;;;;2291438;62;30204;-79
2022/04/03 12:44:22;;;;;;;2.20;0.50;;;15.50;69.10;;;;;;2283085;62;30915;-79
2022/04/03 12:46:48;;;;;;;1.58;0.60;;;15.60;69.50;;;;;;2290989;62;30047;-80
2022/04/03 12:49:20;;;;;;;1.85;0.65;;;15.60;69.80;;;;;;2291073;62;31320;-79
2022/04/03 12:51:49;;;;;;;0.95;0.52;;;15.70;69.80;;;;;;2291091;62;29928;-80
2022/04/03 12:54:15;;;;;;;1.27;0.40;;;15.70;69.80;;;;;;2291397;62;30171;-79
2022/04/03 12:59:38;;;;;;;1.13;0.50;;;15.90;69.40;;;;;;2291153;62;30840;-79
2022/04/03 13:02:06;;;;;;;3.85;0.88;;;15.90;69.50;;;;;;2291293;62;30068;-79
2022/04/03 13:04:32;;;;;;;4.45;0.73;;;15.90;69.70;;;;;;2277357;62;30162;-79
2022/04/03 13:06:58;;;;;;;1.35;0.40;;;15.90;69.70;;;;;;2291202;62;30056;-80
2022/04/03 13:09:24;;;;;;;1.00;0.52;;;15.90;69.80;;;;;;2291164;62;30251;-80
2022/04/03 13:11:51;;;;;;;1.17;0.43;;;15.90;69.50;;;;;;2291139;62;30491;-80
2022/04/03 13:14:24;;;;;;;0.88;0.45;;;16.00;69.40;;;;;;2291231;62;30173;-80
2022/04/03 13:16:52;;;;;;;1.60;0.43;;;16.00;69.10;;;;;;2291438;62;30134;-79
2022/04/03 13:19:19;;;;;;;1.45;0.63;;;16.10;69.00;;;;;;2291020;62;32601;-79
2022/04/03 13:21:45;;;;;;;2.30;0.52;;;16.20;68.90;;;;;;2291227;62;30647;-80
2022/04/03 13:24:13;;;;;;;2.22;0.80;;;16.20;68.90;;;;;;2291157;62;30110;-80
2022/04/03 13:26:39;;;;;;;0.98;0.45;;;16.30;68.70;;;;;;2283721;62;30234;-80
2022/04/03 13:29:08;;;;;;;0.75;0.40;;;16.30;68.50;;;;;;2290482;62;30944;-79
2022/04/03 13:31:35;;;;;;;1.30;0.68;;;16.40;68.50;;;;;;2283710;62;30788;-79
2022/04/03 13:34:12;;;;;;;1.27;0.35;;;16.50;68.20;;;;;;2290967;62;30291;-79
2022/04/03 13:36:47;;;;;;;1.92;0.77;;;16.50;68.00;;;;;;2291170;62;30298;-80
2022/04/03 13:39:17;;;;;;;0.80;0.65;;;16.60;67.40;;;;;;2291576;62;30087;-80
2022/04/03 13:41:43;;;;;;;0.50;0.38;;;16.70;68.00;;;;;;2280946;62;31642;-79
2022/04/03 13:44:19;;;;;;;1.08;0.50;;;16.80;67.80;;;;;;2285598;62;30202;-80
2022/04/03 13:46:46;;;;;;;0.57;0.50;;;16.90;67.90;;;;;;2285589;62;30193;-79
2022/04/03 13:49:11;;;;;;;0.80;0.32;;;16.90;67.60;;;;;;2285203;62;31102;-80
2022/04/03 13:51:38;;;;;;;0.25;0.25;;;17.00;67.50;;;;;;2285472;62;30084;-80
2022/04/03 13:54:04;;;;;;;0.90;0.50;;;17.10;67.40;;;;;;2277834;62;29823;-80
2022/04/03 13:56:30;;;;;;;0.85;0.40;;;17.20;67.10;;;;;;2285485;62;30246;-80
2022/04/03 13:58:56;;;;;;;1.13;0.60;;;17.20;66.90;;;;;;2285467;62;30134;-80
2022/04/03 14:01:23;;;;;;;0.55;0.38;;;17.30;66.70;;;;;;2285204;62;30563;-80
2022/04/03 14:03:49;;;;;;;0.88;0.40;;;17.30;66.50;;;;;;2285422;62;29938;-80
2022/04/03 14:06:15;;;;;;;0.77;0.45;;;17.20;66.20;;;;;;2285429;62;30077;-80
2022/04/03 14:08:41;;;;;;;0.52;0.52;;;17.20;66.10;;;;;;2277753;62;31013;-80
2022/04/03 14:11:07;;;;;;;0.32;0.32;;;17.20;66.00;;;;;;2285522;62;30448;-80
2022/04/03 14:13:33;;;;;;;0.65;0.30;;;17.20;66.60;;;;;;2285440;62;29959;-80
2022/04/03 14:16:04;;;;;;;0.80;0.43;;;17.20;65.90;;;;;;2284887;62;29942;-80
2022/04/03 14:18:30;;;;;;;0.55;0.43;;;17.30;65.70;;;;;;2285315;62;32153;-80
2022/04/03 14:20:57;;;;;;;1.25;0.50;;;17.20;65.70;;;;;;2278018;62;30228;-80
2022/04/03 14:23:26;;;;;;;0.65;0.60;;;17.20;65.60;;;;;;2277717;62;30526;-80
2022/04/03 14:25:52;;;;;;;0.70;0.60;;;17.10;65.40;;;;;;2271531;62;30187;-80
2022/04/03 14:28:21;;;;;;;0.73;0.57;;;17.10;65.50;;;;;;2278195;62;30884;-80
2022/04/03 14:30:47;;;;;;;0.73;0.40;;;17.20;65.50;;;;;;2276347;62;30431;-80
2022/04/03 14:33:13;;;;;;;0.70;0.57;;;17.20;65.50;;;;;;2277258;62;30221;-79
2022/04/03 14:35:43;;;;;;;0.70;0.35;;;17.20;65.20;;;;;;2277314;62;30175;-80
2022/04/03 14:38:09;;;;;;;0.85;0.60;;;17.10;65.10;;;;;;2276923;62;30408;-80
2022/04/03 14:40:38;;;;;;;0.90;0.47;;;17.00;65.10;;;;;;2277162;62;31785;-80
2022/04/03 14:43:07;;;;;;;1.33;0.65;;;17.00;65.20;;;;;;2276598;62;30082;-80
2022/04/03 14:45:34;;;;;;;0.47;0.40;;;16.90;65.10;;;;;;2276514;62;30273;-80
2022/04/03 14:48:01;;;;;;;1.33;0.60;;;16.90;65.20;;;;;;2276973;62;30857;-80
2022/04/03 14:50:29;;;;;;;0.40;0.30;;;16.80;65.20;;;;;;2276744;62;30223;-80
2022/04/03 14:52:58;;;;;;;0.90;0.52;;;17.00;65.30;;;;;;2276529;62;30116;-79
2022/04/03 14:55:33;;;;;;;0.90;0.35;;;17.20;65.00;;;;;;2276967;62;30166;-80
2022/04/03 14:57:59;;;;;;;1.20;0.60;;;17.20;64.00;;;;;;2276697;62;30763;-79
2022/04/03 15:00:25;;;;;;;0.47;0.47;;;17.30;64.40;;;;;;2276362;62;30024;-80
2022/04/03 15:02:51;;;;;;;0.65;0.50;;;17.40;64.20;;;;;;2276947;62;30059;-79
2022/04/03 15:05:17;;;;;;;1.27;0.40;;;17.40;63.90;;;;;;2275815;62;30062;-80
2022/04/03 15:07:42;;;;;;;0.73;0.45;;;17.40;63.80;;;;;;2276957;62;30674;-80
2022/04/03 15:10:11;;;;;;;0.50;0.50;;;17.70;63.80;;;;;;2276886;62;30099;-79
2022/04/03 15:12:37;;;;;;;1.13;0.50;;;18.60;63.20;;;;;;2276076;62;29918;-80
2022/04/03 15:15:06;;;;;;;0.68;0.60;;;19.70;61.20;;;;;;2276309;62;30266;-80
2022/04/03 15:17:32;;;;;;;0.55;0.55;;;20.30;59.10;;;;;;2276697;62;31116;-80
2022/04/03 15:19:58;;;;;;;0.35;0.35;;;20.60;58.40;;;;;;2276512;62;30661;-81
2022/04/03 15:22:24;;;;;;;1.45;0.60;;;21.10;58.00;;;;;;2276706;62;30125;-80
2022/04/03 15:24:50;;;;;;;0.40;0.40;;;21.80;56.70;;;;;;2276277;62;30215;-80
2022/04/03 15:27:16;;;;;;;1.25;0.50;;;22.40;55.50;;;;;;2276449;62;30259;-80
2022/04/03 15:29:54;;;;;;;1.20;0.52;;;23.00;54.50;;;;;;2276045;62;30654;-81
2022/04/03 15:32:20;;;;;;;0.73;0.30;;;23.30;51.80;;;;;;2269598;62;30260;-80
2022/04/03 15:34:46;;;;;;;0.60;0.60;;;23.40;53.10;;;;;;2276493;62;30267;-80
2022/04/03 15:37:14;;;;;;;0.70;0.47;;;23.60;52.70;;;;;;2276609;62;31051;-80
2022/04/03 15:39:43;;;;;;;0.55;0.35;;;23.30;52.10;;;;;;2269148;62;30638;-81
2022/04/03 15:42:12;;;;;;;1.15;0.50;;;22.80;52.20;;;;;;2276693;62;30273;-81
2022/04/03 15:44:40;;;;;;;0.40;0.40;;;22.20;52.80;;;;;;2262988;62;30037;-81
2022/04/03 15:47:06;;;;;;;0.52;0.50;;;21.60;53.40;;;;;;2276338;62;29940;-81
2022/04/03 15:49:32;;;;;;;0.50;0.43;;;21.10;53.90;;;;;;2276023;62;30125;-80
2022/04/03 15:51:58;;;;;;;0.38;0.38;;;20.60;54.30;;;;;;2276090;62;30244;-80
2022/04/03 15:54:24;;;;;;;0.50;0.50;;;20.30;54.90;;;;;;2276307;62;29976;-80
2022/04/03 15:56:50;;;;;;;0.60;0.40;;;19.90;55.40;;;;;;2269282;62;30796;-80
2022/04/03 15:59:17;;;;;;;0.75;0.50;;;20.10;56.00;;;;;;2276490;62;30411;-80
2022/04/03 16:01:42;;;;;;;0.60;0.60;;;20.70;55.80;;;;;;2276448;62;29995;-80
2022/04/03 16:04:11;;;;;;;0.73;0.40;;;21.40;55.00;;;;;;2269311;62;29911;-80
2022/04/03 16:06:37;;;;;;;0.40;0.40;;;22.10;53.80;;;;;;2275934;62;30962;-80
2022/04/03 16:09:04;;;;;;;0.40;0.40;;;22.20;52.80;;;;;;2275715;62;30456;-80
2022/04/03 16:11:30;;;;;;;0.88;0.45;;;21.90;52.40;;;;;;2276487;62;30243;-80
2022/04/03 16:13:56;;;;;;;0.65;0.35;;;21.50;52.40;;;;;;2275959;62;30213;-80
2022/04/03 16:16:23;;;;;;;0.30;0.30;;;21.00;52.70;;;;;;2276106;62;30784;-79
2022/04/03 16:18:50;;;;;;;0.60;0.60;;;20.70;53.40;;;;;;2275917;62;30138;-79
2022/04/03 16:21:16;;;;;;;0.65;0.57;;;20.50;53.70;;;;;;2276340;62;30084;-80
2022/04/03 16:23:43;;;;;;;0.50;0.50;;;20.70;53.60;;;;;;2275718;62;30401;-80
2022/04/03 16:26:09;;;;;;;0.77;0.40;;;20.70;53.50;;;;;;2276001;62;31154;-80
2022/04/03 16:28:44;;;;;;;0.77;0.40;;;20.40;53.80;;;;;;2275993;62;30298;-79
2022/04/03 16:31:11;;;;;;;0.88;0.50;;;20.20;54.10;;;;;;2284017;62;30313;-80
2022/04/03 16:33:37;;;;;;;0.50;0.43;;;20.00;54.60;;;;;;2277308;62;30257;-80
2022/04/03 16:36:03;;;;;;;0.47;0.40;;;19.70;54.70;;;;;;2284319;62;30031;-80
2022/04/03 16:38:31;;;;;;;0.52;0.52;;;19.50;55.00;;;;;;2277171;62;30588;-80
2022/04/03 16:40:59;;;;;;;0.40;0.40;;;19.30;55.30;;;;;;2284487;62;29925;-80
2022/04/03 16:43:24;;;;;;;1.00;0.60;;;19.20;55.60;;;;;;2284245;62;30030;-80
2022/04/03 16:45:53;;;;;;;0.50;0.50;;;19.10;55.80;;;;;;2270607;62;30144;-80
2022/04/03 16:48:19;;;;;;;0.40;0.40;;;19.00;56.20;;;;;;2284400;62;31383;-80
2022/04/03 16:50:45;;;;;;;0.40;0.40;;;18.90;56.50;;;;;;2284179;62;30081;-80
2022/04/03 16:53:11;;;;;;;1.27;0.82;;;18.80;56.80;;;;;;2284392;62;29996;-80
2022/04/03 16:55:37;;;;;;;0.50;0.50;;;18.70;56.90;;;;;;2284438;62;29928;-80
2022/04/03 16:58:03;;;;;;;1.45;0.50;;;18.70;57.80;;;;;;2283894;62;32227;-80
2022/04/03 17:00:29;;;;;;;0.85;0.52;;;18.60;57.20;;;;;;2284442;62;30115;-80
2022/04/03 17:02:57;;;;;;;0.60;0.47;;;18.50;57.30;;;;;;2284445;62;30153;-79
2022/04/03 17:05:26;;;;;;;0.50;0.50;;;18.40;57.40;;;;;;2284106;62;30398;-80
2022/04/03 17:07:51;;;;;;;0.40;0.40;;;18.30;57.70;;;;;;2284381;62;30580;-80
2022/04/03 17:10:23;;;;;;;0.30;0.30;;;18.30;57.90;;;;;;2277098;62;30282;-80
2022/04/03 17:12:50;;;;;;;0.55;0.40;;;18.20;58.00;;;;;;2284084;62;30400;-80
2022/04/03 17:15:15;;;;;;;0.60;0.60;;;18.10;58.20;;;;;;2284311;62;31099;-79
2022/04/03 17:17:42;;;;;;;0.60;0.60;;;18.00;59.10;;;;;;2285268;62;30636;-80
2022/04/03 17:20:09;;;;;;;0.52;0.40;;;17.90;58.40;;;;;;2285290;62;30147;-79
2022/04/03 17:22:35;;;;;;;1.20;0.93;;;17.80;58.50;;;;;;2278262;62;30164;-80
2022/04/03 17:25:02;;;;;;;0.63;0.63;;;17.70;58.80;;;;;;2285563;62;30133;-79
2022/04/03 17:27:27;;;;;;;0.73;0.60;;;17.70;58.90;;;;;;2278182;62;30517;-80
2022/04/03 17:29:54;;;;;;;1.15;0.80;;;17.60;59.10;;;;;;2285468;62;30125;-79
2022/04/03 17:32:20;;;;;;;1.02;0.80;;;17.50;59.30;;;;;;2285331;62;30023;-79
2022/04/03 17:34:46;;;;;;;1.70;0.75;;;17.40;59.40;;;;;;2271483;62;30890;-80
2022/04/03 17:37:12;;;;;;;0.95;0.82;;;17.30;59.50;;;;;;2285382;62;30045;-79
2022/04/03 17:39:40;;;;;;;0.93;0.70;;;17.20;59.70;;;;;;2278018;62;30281;-79
2022/04/03 17:42:08;;;;;;;0.98;0.70;;;17.20;59.90;;;;;;2285555;62;30077;-79
2022/04/03 17:44:37;;;;;;;0.90;0.50;;;17.10;60.00;;;;;;2278182;62;32158;-79
2022/04/03 17:47:04;;;;;;;0.50;0.50;;;17.00;60.10;;;;;;2285174;62;30796;-79
2022/04/03 17:49:30;;;;;;;0.50;0.50;;;16.90;60.40;;;;;;2277973;62;30263;-79
2022/04/03 17:51:56;;;;;;;0.93;0.52;;;16.80;60.60;;;;;;2285058;62;30474;-79
2022/04/03 17:54:24;;;;;;;1.20;0.60;;;16.70;60.80;;;;;;2277782;62;32289;-80
2022/04/03 17:56:50;;;;;;;0.70;0.50;;;16.70;61.10;;;;;;2284931;62;31258;-82
2022/04/03 17:59:16;;;;;;;3.13;1.00;;;16.60;61.60;;;;;;2277004;62;30246;-87
2022/04/03 18:01:42;;;;;;;7.50;1.10;;;16.60;61.60;;;;;;2277197;62;30152;-85
2022/04/03 18:04:19;;;;;;;1.52;0.65;;;16.50;61.90;;;;;;2284847;62;30018;-88
2022/04/03 18:06:48;;;;;;;2.95;0.77;;;16.50;62.50;;;;;;2285378;62;30065;-86
2022/04/03 18:09:16;;;;;;;2.33;0.60;;;16.60;62.30;;;;;;2280204;62;30267;-88
2022/04/03 18:11:42;;;;;;;4.53;0.70;;;16.60;62.50;;;;;;2276938;62;30122;-87
2022/04/03 18:14:11;;;;;;;2.47;0.65;;;16.60;62.40;;;;;;2269741;62;30262;-90
2022/04/03 18:16:37;;;;;;;3.10;0.60;;;16.60;62.80;;;;;;2269530;62;30197;-89
2022/04/03 18:19:03;;;;;;;1.95;0.80;;;16.60;62.50;;;;;;2274978;62;30342;-86
2022/04/03 18:21:29;;;;;;;2.28;0.70;;;16.60;62.70;;;;;;2276115;62;30182;-87
2022/04/03 18:23:55;;;;;;;2.63;0.90;;;16.60;62.60;;;;;;2276217;62;30355;-76
2022/04/03 18:26:23;;;;;;;2.78;0.50;;;16.60;62.90;;;;;;2275264;62;31628;-79
2022/04/03 18:28:48;;;;;;;2.90;0.70;;;16.60;62.80;;;;;;2276207;62;30470;-81
2022/04/03 18:31:17;;;;;;;6.95;1.20;;;16.60;63.00;;;;;;2276657;62;30122;-83
2022/04/03 18:33:43;;;;;;;2.00;0.47;;;16.60;63.10;;;;;;2263208;62;31924;-81
2022/04/03 18:36:10;;;;;;;3.50;0.77;;;16.60;63.70;;;;;;2276788;62;30659;-82
2022/04/03 18:38:36;;;;;;;1.98;0.68;;;16.70;64.20;;;;;;2269555;62;30048;-81
2022/04/03 18:41:03;;;;;;;3.58;0.80;;;16.70;64.10;;;;;;2276735;62;30067;-78
2022/04/03 18:43:30;;;;;;;1.88;0.55;;;16.80;64.60;;;;;;2276543;62;30139;-77
2022/04/03 18:45:56;;;;;;;2.47;0.60;;;16.80;65.10;;;;;;2276959;62;30866;-76
2022/04/03 18:48:22;;;;;;;1.50;0.52;;;16.90;65.40;;;;;;2269322;62;30361;-76
2022/04/03 18:50:48;;;;;;;2.40;0.47;;;16.90;65.20;;;;;;2276462;62;30068;-75
2022/04/03 18:53:17;;;;;;;2.67;0.70;;;16.90;65.00;;;;;;2276736;62;31473;-77
2022/04/03 18:55:43;;;;;;;1.17;0.60;;;17.00;64.90;;;;;;2261001;62;30876;-73
2022/04/03 18:58:09;;;;;;;2.65;0.63;;;17.00;64.80;;;;;;2274834;62;30134;-73
2022/04/03 19:00:36;;;;;;;1.05;0.40;;;17.00;64.80;;;;;;2260631;62;30108;-74
2022/04/03 19:03:05;;;;;;;2.50;0.45;;;17.00;64.90;;;;;;2274905;62;30958;-73
2022/04/03 19:05:31;;;;;;;0.85;0.50;;;17.00;65.20;;;;;;2267680;62;30645;-73
2022/04/03 19:08:02;;;;;;;0.32;0.32;;;17.00;65.00;;;;;;2275261;62;30126;-73
2022/04/03 19:10:29;;;;;;;0.68;0.55;;;17.00;64.80;;;;;;2267853;62;30114;-74
2022/04/03 19:12:55;;;;;;;2.15;0.65;;;17.00;65.40;;;;;;2273885;62;30679;-74
2022/04/03 19:15:23;;;;;;;1.40;0.50;;;17.10;65.00;;;;;;2275524;62;30011;-74
2022/04/03 19:17:55;;;;;;;1.15;0.70;;;17.10;65.10;;;;;;2275327;62;30019;-74
2022/04/03 19:20:24;;;;;;;2.13;0.40;;;17.10;65.10;;;;;;2272958;62;30475;-72
2022/04/03 19:22:52;;;;;;;0.32;0.30;;;17.10;64.90;;;;;;2268705;62;34648;-75
2022/04/03 19:25:18;;;;;;;0.40;0.40;;;17.10;65.10;;;;;;2275170;62;30119;-75
2022/04/03 19:27:47;;;;;;;1.48;0.50;;;17.10;65.40;;;;;;2275498;62;30054;-75
2022/04/03 19:30:13;;;;;;;1.65;0.52;;;17.10;65.20;;;;;;2267997;62;30217;-74
2022/04/03 19:32:45;;;;;;;0.80;0.40;;;17.10;65.20;;;;;;2275345;62;31173;-74
2022/04/03 19:35:17;;;;;;;1.55;0.50;;;17.10;64.80;;;;;;2275627;62;30551;-74
2022/04/03 19:37:44;;;;;;;1.70;0.65;;;17.10;64.90;;;;;;2267344;62;30219;-75
2022/04/03 19:40:11;;;;;;;0.75;0.60;;;17.10;64.80;;;;;;2274412;62;30090;-75
2022/04/03 19:42:39;;;;;;;0.70;0.40;;;17.10;64.70;;;;;;2268075;62;32283;-74
2022/04/03 19:45:05;;;;;;;0.60;0.60;;;17.10;64.60;;;;;;2275328;62;32006;-73
2022/04/03 19:47:34;;;;;;;0.40;0.40;;;17.10;64.70;;;;;;2267980;62;30158;-74
2022/04/03 19:50:00;;;;;;;0.60;0.50;;;17.10;64.80;;;;;;2274180;62;30166;-75
2022/04/03 19:52:26;;;;;;;0.30;0.30;;;17.10;65.00;;;;;;2273584;62;31089;-75
2022/04/03 19:54:52;;;;;;;0.20;0.20;;;17.10;65.30;;;;;;2274771;62;30428;-73
2022/04/03 19:57:18;;;;;;;0.38;0.38;;;17.20;64.90;;;;;;2275103;62;30764;-74
2022/04/03 19:59:45;;;;;;;0.30;0.30;;;17.10;64.70;;;;;;2275100;62;30367;-74
2022/04/03 20:02:23;;;;;;;0.80;0.52;;;17.10;64.80;;;;;;2274991;62;30127;-75
2022/04/03 20:04:49;;;;;;;1.13;0.73;;;17.20;65.20;;;;;;2275245;62;30116;-75
2022/04/03 20:07:15;;;;;;;0.93;0.30;;;17.10;64.70;;;;;;2273352;62;30182;-73
2022/04/03 20:09:41;;;;;;;0.52;0.40;;;17.20;65.10;;;;;;2274061;62;30060;-73
2022/04/03 20:12:08;;;;;;;0.52;0.30;;;17.10;64.90;;;;;;2275147;62;31911;-73
2022/04/03 20:14:34;;;;;;;0.63;0.40;;;17.20;64.90;;;;;;2267683;62;30520;-73
2022/04/03 20:17:00;;;;;;;0.93;0.50;;;17.20;65.10;;;;;;2275270;62;30066;-73
2022/04/03 20:19:26;;;;;;;0.43;0.43;;;17.20;65.00;;;;;;2275105;62;30514;-73
2022/04/03 20:21:52;;;;;;;0.75;0.50;;;17.10;64.80;;;;;;2265452;62;30380;-73
2022/04/03 20:24:18;;;;;;;1.02;0.60;;;17.10;64.70;;;;;;2274976;62;30171;-73
2022/04/03 20:26:44;;;;;;;0.65;0.47;;;17.10;64.80;;;;;;2267594;62;30088;-74
2022/04/03 20:29:11;;;;;;;0.70;0.40;;;17.20;64.70;;;;;;2267652;62;30338;-74
2022/04/03 20:31:36;;;;;;;0.70;0.60;;;17.20;64.60;;;;;;2261101;62;30277;-73
2022/04/03 20:34:02;;;;;;;1.65;0.50;;;17.20;64.60;;;;;;2267821;62;30643;-73
2022/04/03 20:36:28;;;;;;;1.63;0.60;;;17.10;64.60;;;;;;2267644;62;30095;-74
2022/04/03 20:38:55;;;;;;;0.40;0.35;;;17.20;64.90;;;;;;2267528;62;30090;-73
2022/04/03 20:41:27;;;;;;;1.15;0.57;;;17.10;64.80;;;;;;2275047;62;30116;-73
2022/04/03 20:43:54;;;;;;;0.40;0.30;;;17.10;65.40;;;;;;2274583;62;31205;-73
2022/04/03 20:46:23;;;;;;;0.63;0.55;;;17.20;64.80;;;;;;2274826;62;30146;-73
2022/04/03 20:48:51;;;;;;;0.30;0.30;;;17.20;65.00;;;;;;2267528;62;30137;-73
2022/04/03 20:51:18;;;;;;;0.65;0.50;;;17.20;64.60;;;;;;2267055;62;31224;-75
2022/04/03 20:53:44;;;;;;;1.02;0.40;;;17.10;64.40;;;;;;2276380;62;30524;-75
2022/04/03 20:56:10;;;;;;;0.50;0.50;;;17.10;64.30;;;;;;2268295;62;30024;-73
2022/04/03 20:58:36;;;;;;;0.73;0.73;;;17.00;64.70;;;;;;2261557;62;30739;-73
2022/04/03 21:01:04;;;;;;;0.30;0.30;;;17.00;64.80;;;;;;2268671;62;30115;-75
2022/04/03 21:03:30;;;;;;;0.47;0.47;;;17.00;64.80;;;;;;2261705;62;30253;-74
2022/04/03 21:05:59;;;;;;;1.52;0.43;;;17.00;64.50;;;;;;2272395;62;30253;-75
2022/04/03 21:08:24;;;;;;;0.52;0.50;;;17.00;64.80;;;;;;2274894;62;30045;-75
2022/04/03 21:10:53;;;;;;;1.10;0.30;;;17.00;64.50;;;;;;2268215;62;31300;-75
2022/04/03 21:13:19;;;;;;;3.28;0.60;;;17.00;64.60;;;;;;2276387;62;31889;-75
2022/04/03 21:15:45;;;;;;;0.52;0.52;;;17.00;64.90;;;;;;2276189;62;29939;-75
2022/04/03 21:18:21;;;;;;;0.77;0.50;;;17.00;64.80;;;;;;2275492;62;30135;-74
2022/04/03 21:20:46;;;;;;;0.82;0.50;;;17.00;65.10;;;;;;2267330;62;30967;-73
2022/04/03 21:23:13;;;;;;;1.65;0.45;;;17.00;64.90;;;;;;2274852;62;30850;-74
2022/04/03 21:25:39;;;;;;;1.38;0.60;;;17.00;64.80;;;;;;2275657;62;30300;-73
2022/04/03 21:28:05;;;;;;;4.25;0.70;;;17.00;64.60;;;;;;2268789;62;30431;-73
2022/04/03 21:30:34;;;;;;;0.50;0.50;;;17.00;64.60;;;;;;2268516;62;31207;-74
2022/04/03 21:33:03;;;;;;;;;;;17.00;64.40;;;;;;2275748;62;30670;-74
2022/04/03 21:35:29;;;;;;;0.55;0.55;;;16.90;63.80;;;;;;2268836;62;30285;-75
2022/04/03 21:37:55;;;;;;;0.52;0.50;;;16.90;64.50;;;;;;2268625;62;30208;-75
2022/04/03 21:40:21;;;;;;;0.98;0.57;;;16.90;64.40;;;;;;2274940;62;31056;-75
2022/04/03 21:42:47;;;;;;;1.70;0.50;;;16.90;64.50;;;;;;2267216;62;30179;-74
2022/04/03 21:45:14;;;;;;;0.55;0.55;;;16.90;64.50;;;;;;2268455;62;30288;-75
2022/04/03 21:47:41;;;;;;;0.40;0.40;;;16.90;64.70;;;;;;2275998;62;30609;-73
2022/04/03 21:50:13;;;;;;;0.60;0.57;;;16.90;64.50;;;;;;2275890;62;31217;-75
2022/04/03 21:52:39;;;;;;;0.47;0.47;;;16.90;64.40;;;;;;2268659;62;30319;-74
2022/04/03 21:55:05;;;;;;;0.77;0.52;;;16.90;64.60;;;;;;2275942;62;29875;-73
2022/04/03 21:57:31;;;;;;;1.33;0.68;;;17.00;64.70;;;;;;2275982;62;30528;-75
2022/04/03 22:00:00;;;;;;;0.70;0.40;;;16.90;64.60;;;;;;2268437;62;31043;-75
2022/04/03 22:02:30;;;;;;;0.60;0.50;;;17.00;64.50;;;;;;2275026;62;30179;-74
2022/04/03 22:04:59;;;;;;;2.33;0.75;;;17.00;64.40;;;;;;2276007;62;29983;-74
2022/04/03 22:07:27;;;;;;;0.63;0.52;;;16.90;64.40;;;;;;2275800;62;30090;-75
2022/04/03 22:09:53;;;;;;;0.60;0.60;;;16.90;64.30;;;;;;2267730;62;30235;-75
2022/04/03 22:13:26;;;;;;;0.68;0.57;;;16.90;64.00;;;;;;2282930;62;30166;-73
2022/04/03 22:15:55;;;;;;;1.45;0.73;;;16.80;64.20;;;;;;2274664;62;30261;-73
2022/04/03 22:18:21;;;;;;;0.88;0.70;;;16.80;64.30;;;;;;2274886;62;30383;-74
2022/04/03 22:20:47;;;;;;;1.65;0.60;;;16.80;64.40;;;;;;2274709;62;30390;-76
2022/04/03 22:23:13;;;;;;;1.83;0.68;;;16.70;64.10;;;;;;2267516;62;30510;-76
2022/04/03 22:25:38;;;;;;;1.85;0.70;;;16.60;64.20;;;;;;2267765;62;30227;-74
2022/04/03 22:28:04;;;;;;;1.20;0.65;;;16.50;64.10;;;;;;2274549;62;30116;-75
2022/04/03 22:30:33;;;;;;;0.73;0.63;;;16.50;64.20;;;;;;2274872;62;31112;-76
2022/04/03 22:33:02;;;;;;;0.95;0.70;;;16.40;64.30;;;;;;2274522;62;31666;-77
2022/04/03 22:35:27;;;;;;;3.20;0.70;;;16.30;64.30;;;;;;2267300;62;30064;-77
2022/04/03 22:37:54;;;;;;;1.38;0.52;;;16.30;64.50;;;;;;2274713;62;30289;-78
2022/04/03 22:40:20;;;;;;;0.80;0.80;;;16.20;64.50;;;;;;2267333;62;31018;-77
2022/04/03 22:42:49;;;;;;;0.80;0.80;;;16.10;64.60;;;;;;2274245;62;31533;-77
2022/04/03 22:45:15;;;;;;;0.88;0.70;;;16.10;64.80;;;;;;2274970;62;30011;-77
2022/04/03 22:47:41;;;;;;;0.75;0.68;;;16.00;64.80;;;;;;2274788;62;30222;-77
2022/04/03 22:50:08;;;;;;;0.63;0.60;;;16.00;65.00;;;;;;2267238;62;30113;-77
2022/04/03 22:52:35;;;;;;;4.40;0.90;;;15.90;65.00;;;;;;2267350;62;30159;-77
2022/04/03 22:55:03;;;;;;;2.75;0.90;;;15.80;65.10;;;;;;2274644;62;30036;-77
2022/04/03 22:57:30;;;;;;;2.83;1.33;;;15.80;65.20;;;;;;2267060;62;30216;-77
2022/04/03 22:59:56;;;;;;;2.53;1.02;;;15.80;65.30;;;;;;2274719;62;32122;-77
2022/04/03 23:02:22;;;;;;;2.45;1.15;;;15.70;65.30;;;;;;2274751;62;30966;-77
2022/04/03 23:04:51;;;;;;;4.43;0.82;;;15.70;65.50;;;;;;2274442;62;30223;-77
2022/04/03 23:07:17;;;;;;;1.48;0.80;;;15.60;65.60;;;;;;2267442;62;30216;-77
2022/04/03 23:09:43;;;;;;;1.25;0.85;;;15.60;65.70;;;;;;2279764;62;30162;-78
2022/04/03 23:12:09;;;;;;;0.80;0.80;;;15.60;65.80;;;;;;2276319;62;30992;-77
2022/04/03 23:14:35;;;;;;;2.10;0.82;;;15.50;65.80;;;;;;2274820;62;30191;-77
2022/04/03 23:17:03;;;;;;;1.75;0.82;;;15.40;65.90;;;;;;2274606;62;30842;-77
2022/04/03 23:19:29;;;;;;;2.28;1.00;;;15.40;66.00;;;;;;2274546;62;31784;-77
2022/04/03 23:21:55;;;;;;;2.88;0.90;;;15.40;66.10;;;;;;2274306;62;30266;-78
2022/04/03 23:24:21;;;;;;;2.28;1.02;;;15.30;66.20;;;;;;2269993;62;30107;-77
2022/04/03 23:26:49;;;;;;;2.17;1.00;;;15.30;66.20;;;;;;2269208;62;30024;-77
2022/04/03 23:29:17;;;;;;;3.63;0.90;;;15.20;66.20;;;;;;2269207;62;30702;-77
2022/04/03 23:31:42;;;;;;;0.80;0.80;;;15.30;66.40;;;;;;2268981;62;31817;-78
2022/04/03 23:34:08;;;;;;;1.58;1.10;;;15.20;66.30;;;;;;2268985;62;30127;-78
2022/04/03 23:36:34;;;;;;;1.05;0.90;;;15.20;66.40;;;;;;2269025;62;30269;-77
2022/04/03 23:39:00;;;;;;;1.92;1.00;;;15.20;66.50;;;;;;2268917;62;29965;-77
2022/04/03 23:41:26;;;;;;;0.80;0.80;;;15.10;66.50;;;;;;2269165;62;30105;-77
2022/04/03 23:43:51;;;;;;;2.08;1.00;;;15.10;66.60;;;;;;2261915;62;30178;-78
2022/04/03 23:46:17;;;;;;;1.25;0.90;;;15.10;66.60;;;;;;2268856;62;30116;-77
2022/04/03 23:48:43;;;;;;;1.00;0.70;;;15.00;66.70;;;;;;2269047;62;30001;-77
2022/04/03 23:51:09;;;;;;;2.10;1.00;;;15.00;66.90;;;;;;2261443;62;30586;-77
2022/04/03 23:53:40;;;;;;;2.38;0.93;;;15.00;66.80;;;;;;2268879;62;30224;-77
2022/04/03 23:56:08;;;;;;;0.80;0.77;;;15.00;66.80;;;;;;2268891;62;30295;-79
2022/04/03 23:58:40;;;;;;;2.03;1.08;;;14.90;66.70;;;;;;2268124;62;30111;-79
